createdAt,value
2019-04-29T00:00:43.580Z,99.90
2019-04-29T00:03:12.648Z,99.90
2019-04-29T00:05:41.485Z,99.90
2019-04-29T00:08:10.356Z,99.90
2019-04-29T00:10:39.131Z,99.90
2019-04-29T00:13:08.077Z,99.90
2019-04-29T00:15:55.475Z,99.90
2019-04-29T00:18:30.557Z,99.90
2019-04-29T00:20:59.504Z,99.90
2019-04-29T00:23:28.360Z,99.90
2019-04-29T00:25:57.318Z,99.90
2019-04-29T00:28:26.127Z,99.90
2019-04-29T00:30:55.047Z,99.90
2019-04-29T00:33:23.989Z,99.90
2019-04-29T00:35:52.772Z,99.90
2019-04-29T00:38:42.347Z,99.90
2019-04-29T00:41:35.844Z,99.90
2019-04-29T00:44:07.030Z,99.90
2019-04-29T00:46:35.992Z,99.90
2019-04-29T00:49:04.848Z,99.90
2019-04-29T00:51:33.791Z,99.90
2019-04-29T00:54:11.995Z,99.90
2019-04-29T00:56:39.322Z,99.90
2019-04-29T00:59:08.558Z,99.90
2019-04-29T01:01:37.542Z,99.90
2019-04-29T01:04:06.782Z,99.90
2019-04-29T01:06:35.636Z,99.90
2019-04-29T01:09:08.513Z,99.90
2019-04-29T01:11:37.524Z,99.90
2019-04-29T01:14:06.398Z,99.90
2019-04-29T01:16:35.327Z,99.90
2019-04-29T01:19:04.443Z,99.90
2019-04-29T01:21:33.207Z,99.90
2019-04-29T01:24:02.006Z,99.90
2019-04-29T01:26:49.862Z,99.90
2019-04-29T01:29:19.406Z,99.90
2019-04-29T01:31:48.426Z,99.90
2019-04-29T01:34:21.986Z,99.90
2019-04-29T01:36:50.761Z,99.90
2019-04-29T01:39:20.077Z,99.90
2019-04-29T01:42:03.268Z,99.90
2019-04-29T01:44:34.078Z,99.90
2019-04-29T01:47:02.919Z,99.90
2019-04-29T01:49:31.699Z,99.90
2019-04-29T01:52:00.619Z,99.90
2019-04-29T01:54:29.821Z,99.90
2019-04-29T01:56:58.594Z,99.90
2019-04-29T01:59:27.377Z,99.90
2019-04-29T02:01:56.227Z,99.90
2019-04-29T02:04:25.392Z,99.90
2019-04-29T02:06:54.507Z,99.90
2019-04-29T02:09:34.090Z,99.90
2019-04-29T02:12:03.084Z,99.90
2019-04-29T02:14:32.198Z,99.90
2019-04-29T02:17:01.037Z,99.90
2019-04-29T02:19:29.898Z,99.90
2019-04-29T02:22:23.811Z,99.90
2019-04-29T02:24:56.629Z,99.90
2019-04-29T02:27:25.393Z,99.90
2019-04-29T02:29:54.176Z,99.90
2019-04-29T02:32:23.028Z,99.90
2019-04-29T02:34:52.337Z,99.90
2019-04-29T02:37:27.483Z,99.90
2019-04-29T02:40:08.521Z,99.90
2019-04-29T02:42:54.350Z,99.90
2019-04-29T02:45:27.581Z,99.90
2019-04-29T02:47:56.434Z,99.90
2019-04-29T02:50:25.503Z,99.90
2019-04-29T02:52:54.530Z,99.90
2019-04-29T02:55:30.973Z,99.90
2019-04-29T02:58:21.677Z,99.90
2019-04-29T03:01:15.586Z,99.90
2019-04-29T03:04:03.538Z,99.90
2019-04-29T03:06:32.377Z,99.90
2019-04-29T03:09:01.418Z,99.90
2019-04-29T03:11:30.586Z,99.90
2019-04-29T03:13:59.445Z,99.90
2019-04-29T03:16:28.542Z,99.90
2019-04-29T03:19:02.051Z,99.90
2019-04-29T03:21:35.062Z,99.90
2019-04-29T03:24:04.010Z,99.90
2019-04-29T03:26:33.101Z,99.90
2019-04-29T03:29:02.135Z,99.90
2019-04-29T03:31:30.918Z,99.90
2019-04-29T03:34:00.211Z,99.90
2019-04-29T03:36:29.130Z,99.90
2019-04-29T03:38:58.055Z,99.90
2019-04-29T03:41:26.845Z,99.90
2019-04-29T03:43:55.643Z,99.90
2019-04-29T03:46:24.507Z,99.90
2019-04-29T03:48:53.517Z,99.90
2019-04-29T03:51:22.308Z,99.90
2019-04-29T03:53:51.337Z,99.90
2019-04-29T03:56:21.048Z,99.90
2019-04-29T03:58:50.325Z,99.90
2019-04-29T04:01:25.475Z,99.90
2019-04-29T04:04:01.989Z,99.90
2019-04-29T04:06:36.252Z,99.90
2019-04-29T04:09:28.138Z,99.90
2019-04-29T04:11:57.063Z,99.90
2019-04-29T04:14:25.897Z,99.90
2019-04-29T04:17:10.621Z,99.90
2019-04-29T04:19:39.449Z,99.90
2019-04-29T04:22:08.533Z,99.90
2019-04-29T04:24:37.382Z,99.90
2019-04-29T04:27:06.300Z,99.90
2019-04-29T04:29:35.092Z,99.90
2019-04-29T04:32:04.142Z,99.90
2019-04-29T04:34:32.934Z,99.90
2019-04-29T04:37:02.116Z,99.90
2019-04-29T04:39:33.122Z,99.90
2019-04-29T04:42:02.239Z,99.90
2019-04-29T04:44:49.740Z,99.90
2019-04-29T04:47:19.756Z,99.90
2019-04-29T04:49:49.528Z,99.90
2019-04-29T04:52:18.385Z,99.90
2019-04-29T04:54:49.263Z,99.90
2019-04-29T04:57:18.359Z,99.90
2019-04-29T04:59:47.139Z,99.90
2019-04-29T05:02:17.783Z,99.90
2019-04-29T05:04:46.882Z,99.90
2019-04-29T05:07:15.998Z,99.90
2019-04-29T05:09:45.049Z,99.90
2019-04-29T05:12:14.334Z,99.90
2019-04-29T05:17:30.140Z,99.90
2019-04-29T05:19:59.185Z,99.90
2019-04-29T05:22:27.978Z,99.90
2019-04-29T05:24:56.930Z,99.90
2019-04-29T05:27:25.790Z,99.90
2019-04-29T05:29:54.826Z,99.90
2019-04-29T05:32:23.602Z,99.90
2019-04-29T05:34:55.128Z,99.90
2019-04-29T05:37:29.732Z,99.90
2019-04-29T05:39:58.524Z,99.90
2019-04-29T05:42:27.868Z,99.90
2019-04-29T05:45:03.378Z,99.90
2019-04-29T05:47:40.828Z,99.90
2019-04-29T05:50:26.930Z,99.90
2019-04-29T05:53:00.842Z,99.90
2019-04-29T05:55:29.713Z,99.90
2019-04-29T05:58:11.084Z,99.90
2019-04-29T06:00:41.017Z,99.90
2019-04-29T06:03:09.957Z,99.90
2019-04-29T06:05:39.061Z,99.90
2019-04-29T06:08:08.156Z,99.90
2019-04-29T06:10:37.234Z,99.90
2019-04-29T06:13:06.531Z,99.90
2019-04-29T06:15:35.576Z,99.90
2019-04-29T06:18:04.435Z,99.90
2019-04-29T06:20:33.222Z,99.90
2019-04-29T06:23:02.504Z,99.90
2019-04-29T06:25:31.368Z,99.90
2019-04-29T06:28:00.140Z,99.90
2019-04-29T06:30:29.288Z,99.90
2019-04-29T06:32:58.060Z,99.90
2019-04-29T06:35:26.851Z,99.90
2019-04-29T06:37:55.945Z,99.90
2019-04-29T06:40:24.973Z,99.90
2019-04-29T06:42:55.233Z,99.90
2019-04-29T06:45:24.145Z,99.90
2019-04-29T06:47:52.998Z,99.90
2019-04-29T06:50:21.850Z,99.90
2019-04-29T06:52:50.865Z,99.90
2019-04-29T06:55:20.014Z,99.90
2019-04-29T06:57:48.787Z,99.50
2019-04-29T07:00:22.091Z,99.00
2019-04-29T07:02:49.874Z,98.80
2019-04-29T07:05:18.725Z,98.10
2019-04-29T07:07:47.493Z,97.80
2019-04-29T07:10:21.638Z,97.60
2019-04-29T07:12:48.503Z,97.00
2019-04-29T07:15:17.408Z,97.10
2019-04-29T07:17:46.518Z,96.90
2019-04-29T07:20:15.448Z,95.90
2019-04-29T07:22:44.257Z,95.20
2019-04-29T07:25:13.202Z,94.60
2019-04-29T07:27:44.249Z,94.00
2019-04-29T07:30:13.157Z,93.00
2019-04-29T07:32:47.140Z,93.10
2019-04-29T07:35:13.520Z,90.80
2019-04-29T07:37:42.293Z,91.00
2019-04-29T07:40:12.240Z,90.90
2019-04-29T07:42:41.642Z,90.60
2019-04-29T07:45:23.895Z,90.50
2019-04-29T07:47:56.711Z,90.00
2019-04-29T07:50:26.643Z,88.60
2019-04-29T07:52:53.592Z,88.80
2019-04-29T07:55:26.133Z,86.90
2019-04-29T07:57:53.334Z,88.20
2019-04-29T08:00:32.706Z,88.80
2019-04-29T08:03:02.830Z,87.00
2019-04-29T08:05:31.777Z,85.30
2019-04-29T08:08:00.791Z,85.50
2019-04-29T08:10:29.941Z,86.30
2019-04-29T08:12:59.700Z,87.10
2019-04-29T08:15:31.717Z,84.40
2019-04-29T08:18:06.419Z,86.50
2019-04-29T08:20:29.907Z,84.80
2019-04-29T08:23:02.596Z,84.30
2019-04-29T08:25:29.288Z,83.80
2019-04-29T08:27:58.060Z,79.80
2019-04-29T08:30:26.958Z,76.70
2019-04-29T08:32:55.745Z,72.20
2019-04-29T08:35:24.707Z,70.60
2019-04-29T08:37:53.892Z,68.10
2019-04-29T08:40:22.838Z,65.70
2019-04-29T08:42:58.099Z,64.80
2019-04-29T08:45:34.725Z,64.30
2019-04-29T08:48:02.709Z,63.40
2019-04-29T08:50:31.884Z,59.60
2019-04-29T08:53:00.693Z,61.80
2019-04-29T08:55:31.371Z,60.90
2019-04-29T08:58:00.381Z,59.80
2019-04-29T09:00:29.577Z,59.20
2019-04-29T09:02:58.454Z,58.50
2019-04-29T09:05:27.305Z,57.20
2019-04-29T09:07:57.408Z,57.00
2019-04-29T09:10:27.053Z,58.30
2019-04-29T09:12:55.969Z,56.30
2019-04-29T09:15:24.980Z,57.00
2019-04-29T09:17:53.868Z,55.20
2019-04-29T09:20:22.718Z,56.60
2019-04-29T09:22:56.486Z,55.50
2019-04-29T09:25:39.378Z,55.30
2019-04-29T09:28:10.577Z,54.50
2019-04-29T09:30:40.100Z,54.00
2019-04-29T09:33:13.155Z,54.20
2019-04-29T09:35:40.608Z,54.90
2019-04-29T09:38:09.812Z,54.70
2019-04-29T09:40:45.681Z,53.90
2019-04-29T09:43:29.054Z,53.40
2019-04-29T09:46:20.499Z,53.50
2019-04-29T09:48:49.281Z,52.90
2019-04-29T09:51:22.627Z,52.90
2019-04-29T09:53:49.828Z,53.20
2019-04-29T09:56:18.620Z,52.60
2019-04-29T09:58:47.656Z,51.50
2019-04-29T10:01:27.472Z,51.10
2019-04-29T10:04:27.598Z,52.30
2019-04-29T10:06:57.851Z,53.70
2019-04-29T10:09:26.706Z,54.10
2019-04-29T10:11:55.590Z,54.90
2019-04-29T10:14:24.521Z,54.80
2019-04-29T10:17:15.336Z,55.00
2019-04-29T10:19:53.531Z,55.70
2019-04-29T10:22:22.384Z,55.50
2019-04-29T10:24:51.268Z,54.00
2019-04-29T10:27:20.150Z,51.20
2019-04-29T10:32:32.521Z,51.50
2019-04-29T10:35:03.603Z,46.30
2019-04-29T10:37:32.709Z,45.40
2019-04-29T10:40:19.754Z,46.20
2019-04-29T10:43:15.339Z,46.10
2019-04-29T10:45:56.208Z,45.40
2019-04-29T10:48:29.161Z,44.20
2019-04-29T10:50:59.142Z,43.00
2019-04-29T10:53:28.933Z,41.20
2019-04-29T10:56:00.880Z,43.30
2019-04-29T10:58:35.064Z,43.40
2019-04-29T11:02:01.797Z,41.70
2019-04-29T11:04:31.603Z,41.90
2019-04-29T11:07:13.761Z,41.30
2019-04-29T11:09:53.908Z,41.80
2019-04-29T11:12:22.869Z,41.80
2019-04-29T11:14:51.906Z,40.80
2019-04-29T11:17:23.249Z,40.90
2019-04-29T11:19:52.443Z,41.20
2019-04-29T11:22:23.372Z,41.40
2019-04-29T11:25:11.464Z,41.00
2019-04-29T11:27:47.158Z,42.10
2019-04-29T11:30:19.529Z,42.10
2019-04-29T11:32:52.449Z,42.90
2019-04-29T11:35:35.757Z,41.50
2019-04-29T11:38:06.420Z,41.00
2019-04-29T11:40:43.502Z,39.50
2019-04-29T11:43:10.822Z,40.30
2019-04-29T11:45:38.971Z,40.40
2019-04-29T11:48:08.782Z,41.60
2019-04-29T11:50:45.295Z,41.30
2019-04-29T11:53:15.590Z,41.90
2019-04-29T11:55:46.355Z,43.00
2019-04-29T11:58:23.263Z,42.20
2019-04-29T12:01:10.239Z,41.10
2019-04-29T12:03:39.969Z,39.70
2019-04-29T12:06:10.055Z,39.60
2019-04-29T12:08:39.273Z,39.20
2019-04-29T12:11:08.200Z,40.10
2019-04-29T12:13:43.554Z,40.30
2019-04-29T12:16:19.746Z,38.70
2019-04-29T12:18:51.814Z,39.00
2019-04-29T12:21:25.684Z,37.10
2019-04-29T12:23:56.701Z,39.30
2019-04-29T12:26:25.841Z,37.70
2019-04-29T12:28:54.757Z,39.50
2019-04-29T12:31:44.732Z,40.80
2019-04-29T12:34:33.692Z,41.20
2019-04-29T12:37:03.250Z,40.90
2019-04-29T12:39:51.189Z,41.80
2019-04-29T12:42:55.501Z,42.10
2019-04-29T12:45:30.815Z,40.10
2019-04-29T12:47:59.774Z,41.90
2019-04-29T12:50:29.036Z,40.50
2019-04-29T12:52:57.856Z,39.80
2019-04-29T12:55:44.203Z,40.30
2019-04-29T12:58:04.294Z,40.10
2019-04-29T13:00:46.841Z,39.80
2019-04-29T13:03:23.056Z,39.70
2019-04-29T13:05:58.873Z,40.30
2019-04-29T13:08:37.987Z,39.90
2019-04-29T13:11:07.391Z,40.20
2019-04-29T13:13:36.170Z,40.00
2019-04-29T13:16:22.993Z,39.80
2019-04-29T13:19:14.429Z,39.60
2019-04-29T13:21:41.821Z,39.10
2019-04-29T13:24:23.119Z,39.50
2019-04-29T13:26:42.996Z,39.00
2019-04-29T13:29:26.215Z,39.20
2019-04-29T13:31:42.782Z,38.70
2019-04-29T13:34:24.349Z,39.40
2019-04-29T13:37:06.176Z,39.70
2019-04-29T13:39:37.870Z,39.30
2019-04-29T13:41:57.623Z,40.50
2019-04-29T13:44:20.468Z,39.70
2019-04-29T13:47:04.309Z,40.50
2019-04-29T13:49:39.499Z,40.20
2019-04-29T13:52:08.453Z,39.50
2019-04-29T13:54:42.842Z,39.40
2019-04-29T13:57:15.394Z,40.60
2019-04-29T13:59:57.530Z,41.80
2019-04-29T14:02:36.854Z,40.90
2019-04-29T14:05:04.889Z,41.30
2019-04-29T14:07:34.035Z,41.60
2019-04-29T14:10:03.032Z,40.90
2019-04-29T14:12:51.125Z,41.50
2019-04-29T14:15:03.168Z,41.90
2019-04-29T14:17:35.675Z,41.50
2019-04-29T14:20:03.125Z,40.30
2019-04-29T14:22:32.156Z,40.40
2019-04-29T14:25:01.273Z,40.10
2019-04-29T14:27:30.208Z,39.60
2019-04-29T14:30:02.956Z,39.70
2019-04-29T14:32:36.139Z,40.50
2019-04-29T14:35:11.725Z,40.00
2019-04-29T14:37:38.119Z,39.60
2019-04-29T14:40:07.490Z,40.10
2019-04-29T14:43:27.124Z,39.60
2019-04-29T14:46:03.193Z,39.30
2019-04-29T14:48:42.439Z,39.80
2019-04-29T14:51:06.950Z,38.40
2019-04-29T14:53:35.773Z,38.00
2019-04-29T14:56:04.766Z,39.00
2019-04-29T14:58:33.835Z,39.20
2019-04-29T15:01:23.427Z,39.30
2019-04-29T15:04:17.330Z,39.70
2019-04-29T15:06:36.578Z,39.80
2019-04-29T15:09:16.854Z,41.40
2019-04-29T15:11:50.271Z,41.40
2019-04-29T15:14:34.656Z,40.90
2019-04-29T15:17:11.027Z,40.70
2019-04-29T15:19:56.404Z,41.70
2019-04-29T15:22:28.589Z,41.60
2019-04-29T15:24:57.748Z,41.60
2019-04-29T15:27:26.573Z,40.00
2019-04-29T15:29:55.692Z,40.60
2019-04-29T15:32:24.473Z,41.00
2019-04-29T15:34:53.368Z,40.80
2019-04-29T15:37:22.249Z,40.70
2019-04-29T15:39:51.025Z,41.30
2019-04-29T15:42:19.882Z,41.00
2019-04-29T15:44:51.557Z,41.60
2019-04-29T15:47:19.475Z,42.00
2019-04-29T15:49:48.632Z,42.30
2019-04-29T15:52:21.025Z,43.80
2019-04-29T15:54:50.977Z,45.40
2019-04-29T15:57:18.711Z,45.10
2019-04-29T15:59:49.386Z,45.90
2019-04-29T16:02:18.526Z,46.10
2019-04-29T16:04:54.226Z,46.30
2019-04-29T16:07:30.361Z,44.40
2019-04-29T16:10:20.655Z,44.00
2019-04-29T16:12:52.248Z,43.90
2019-04-29T16:15:21.841Z,43.80
2019-04-29T16:17:50.633Z,43.60
2019-04-29T16:20:19.833Z,44.30
2019-04-29T16:22:48.662Z,45.40
2019-04-29T16:25:17.543Z,45.80
2019-04-29T16:27:53.058Z,46.90
2019-04-29T16:30:18.903Z,47.80
2019-04-29T16:32:48.448Z,47.80
2019-04-29T16:35:23.477Z,48.50
2019-04-29T16:37:48.724Z,48.30
2019-04-29T16:40:18.728Z,48.70
2019-04-29T16:43:08.388Z,48.90
2019-04-29T16:45:51.541Z,49.30
2019-04-29T16:48:20.525Z,50.10
2019-04-29T16:50:50.032Z,50.30
2019-04-29T16:53:19.125Z,50.30
2019-04-29T16:55:48.526Z,51.10
2019-04-29T16:58:18.517Z,51.90
2019-04-29T17:00:52.828Z,52.10
2019-04-29T17:03:18.290Z,52.30
2019-04-29T17:05:47.160Z,53.80
2019-04-29T17:08:17.443Z,53.70
2019-04-29T17:10:56.495Z,52.60
2019-04-29T17:13:25.312Z,52.50
2019-04-29T17:15:54.146Z,52.50
2019-04-29T17:18:23.550Z,50.10
2019-04-29T17:20:52.520Z,50.30
2019-04-29T17:23:24.501Z,52.20
2019-04-29T17:25:52.149Z,51.60
2019-04-29T17:28:29.182Z,53.30
2019-04-29T17:31:15.313Z,54.20
2019-04-29T17:33:51.263Z,54.10
2019-04-29T17:36:23.823Z,55.50
2019-04-29T17:38:51.449Z,55.80
2019-04-29T17:41:20.684Z,56.40
2019-04-29T17:44:05.869Z,56.80
2019-04-29T17:47:11.477Z,57.90
2019-04-29T17:49:45.568Z,58.00
2019-04-29T17:52:19.337Z,58.40
2019-04-29T17:54:50.461Z,58.20
2019-04-29T17:57:37.155Z,59.60
2019-04-29T18:00:20.121Z,61.50
2019-04-29T18:03:11.453Z,63.60
2019-04-29T18:05:54.961Z,66.20
2019-04-29T18:08:56.717Z,66.90
2019-04-29T18:11:25.892Z,69.70
2019-04-29T18:13:56.942Z,71.60
2019-04-29T18:16:35.203Z,74.50
2019-04-29T18:19:11.577Z,75.70
2019-04-29T18:21:59.230Z,78.00
2019-04-29T18:24:37.554Z,82.20
2019-04-29T18:27:10.120Z,83.50
2019-04-29T18:29:41.768Z,86.50
2019-04-29T18:32:09.598Z,88.60
2019-04-29T18:34:39.028Z,90.90
2019-04-29T18:37:07.921Z,91.50
2019-04-29T18:39:37.471Z,92.60
2019-04-29T18:42:07.199Z,93.30
2019-04-29T18:44:35.993Z,94.00
2019-04-29T18:47:05.499Z,94.70
2019-04-29T18:49:34.618Z,95.20
2019-04-29T18:52:05.635Z,95.80
2019-04-29T18:54:35.774Z,96.00
2019-04-29T18:57:05.835Z,96.30
2019-04-29T19:02:20.681Z,96.30
2019-04-29T19:04:56.555Z,97.10
2019-04-29T19:07:25.834Z,97.10
2019-04-29T19:09:55.528Z,96.30
2019-04-29T19:12:24.434Z,96.50
2019-04-29T19:14:53.231Z,97.20
2019-04-29T19:17:22.197Z,97.70
2019-04-29T19:19:51.023Z,98.80
2019-04-29T19:22:19.807Z,98.90
2019-04-29T19:24:48.621Z,99.20
2019-04-29T19:27:17.785Z,99.30
2019-04-29T19:29:46.723Z,99.80
2019-04-29T19:32:18.858Z,99.90
2019-04-29T19:34:50.181Z,99.90
2019-04-29T19:37:16.817Z,99.90
2019-04-29T19:39:45.747Z,99.90
2019-04-29T19:42:15.657Z,99.90
2019-04-29T19:44:45.839Z,99.90
2019-04-29T19:47:17.391Z,99.90
2019-04-29T19:49:46.485Z,99.90
2019-04-29T19:52:19.040Z,99.90
2019-04-29T19:54:45.899Z,99.90
2019-04-29T19:57:15.189Z,99.90
2019-04-29T19:59:51.477Z,99.90
2019-04-29T20:02:17.017Z,99.90
2019-04-29T20:05:07.236Z,99.90
2019-04-29T20:07:41.234Z,99.90
2019-04-29T20:10:09.022Z,99.90
2019-04-29T20:12:37.011Z,99.90
2019-04-29T20:15:08.463Z,99.90
2019-04-29T20:17:56.592Z,99.90
2019-04-29T20:20:39.139Z,99.90
2019-04-29T20:23:08.141Z,99.90
2019-04-29T20:25:38.561Z,99.90
2019-04-29T20:28:12.720Z,99.90
2019-04-29T20:30:38.852Z,99.90
2019-04-29T20:33:11.475Z,99.90
2019-04-29T20:35:40.388Z,99.90
2019-04-29T20:38:09.136Z,99.90
2019-04-29T20:40:42.829Z,99.90
2019-04-29T20:43:08.818Z,99.90
2019-04-29T20:45:37.892Z,99.90
2019-04-29T20:48:11.131Z,99.90
2019-04-29T20:50:37.915Z,99.90
2019-04-29T20:53:37.848Z,99.90
2019-04-29T20:56:10.398Z,99.90
2019-04-29T20:58:35.407Z,99.90
2019-04-29T21:01:10.783Z,99.90
2019-04-29T21:03:41.000Z,99.90
2019-04-29T21:06:07.915Z,99.90
2019-04-29T21:08:37.071Z,99.90
2019-04-29T21:11:14.324Z,99.90
2019-04-29T21:13:56.145Z,99.90
2019-04-29T21:16:30.716Z,99.90
2019-04-29T21:19:08.455Z,99.90
2019-04-29T21:21:36.888Z,99.90
2019-04-29T21:24:14.011Z,99.90
2019-04-29T21:26:44.299Z,99.90
2019-04-29T21:29:10.645Z,99.90
2019-04-29T21:31:39.471Z,99.90
2019-04-29T21:34:08.409Z,99.90
2019-04-29T21:37:06.566Z,99.90
2019-04-29T21:39:55.022Z,99.90
2019-04-29T21:42:36.813Z,99.90
2019-04-29T21:45:08.615Z,99.90
2019-04-29T21:47:44.156Z,99.90
2019-04-29T21:50:09.023Z,99.90
2019-04-29T21:52:38.249Z,99.90
2019-04-29T21:55:07.293Z,99.90
2019-04-29T21:57:36.102Z,99.90
2019-04-29T22:00:06.005Z,99.90
2019-04-29T22:02:35.790Z,99.90
2019-04-29T22:05:09.584Z,99.90
2019-04-29T22:07:39.753Z,99.90
2019-04-29T22:10:07.800Z,99.90
2019-04-29T22:12:36.674Z,99.90
2019-04-29T22:15:06.030Z,99.90
2019-04-29T22:17:35.991Z,99.90
2019-04-29T22:20:08.110Z,99.90
2019-04-29T22:22:37.008Z,99.90
2019-04-29T22:25:09.791Z,99.90
2019-04-29T22:27:39.346Z,99.90
2019-04-29T22:30:10.321Z,99.90
2019-04-29T22:32:39.394Z,99.90
2019-04-29T22:35:08.624Z,99.90
2019-04-29T22:37:38.410Z,99.90
2019-04-29T22:40:07.528Z,99.90
2019-04-29T22:42:45.976Z,99.90
2019-04-29T22:45:15.052Z,99.90
2019-04-29T22:47:44.108Z,99.90
2019-04-29T22:50:13.153Z,99.90
2019-04-29T22:52:42.008Z,99.90
2019-04-29T22:55:10.951Z,99.90
2019-04-29T22:57:39.726Z,99.90
2019-04-29T23:00:08.844Z,99.90
2019-04-29T23:02:37.667Z,99.90
2019-04-29T23:05:06.989Z,99.90
2019-04-29T23:07:37.732Z,99.90
2019-04-29T23:10:06.703Z,99.90
2019-04-29T23:12:35.763Z,99.90
2019-04-29T23:15:05.729Z,99.90
2019-04-29T23:17:35.462Z,99.90
2019-04-29T23:20:15.472Z,99.90
2019-04-29T23:22:57.917Z,99.90
2019-04-29T23:25:31.165Z,99.90
2019-04-29T23:28:00.176Z,99.90
2019-04-29T23:30:29.552Z,99.90
2019-04-29T23:32:58.429Z,99.90
2019-04-29T23:35:27.377Z,99.90
2019-04-29T23:37:57.461Z,99.90
2019-04-29T23:40:27.062Z,99.90
2019-04-29T23:42:57.474Z,99.90
2019-04-29T23:45:26.953Z,99.90
2019-04-29T23:47:55.808Z,99.90
2019-04-29T23:50:27.854Z,99.90
2019-04-29T23:52:55.669Z,99.90
2019-04-29T23:55:29.128Z,99.90
2019-04-29T23:58:24.019Z,99.90
